sensor_id;sensor_type;location;lat;lon;timestamp;temperature;humidity
11965;DHT22;6042;41.326;19.826;2023-03-01T00:01:27;16.10;95.40
11965;DHT22;6042;41.326;19.826;2023-03-01T00:03:57;16.20;95.30
11965;DHT22;6042;41.326;19.826;2023-03-01T00:06:27;16.20;95.30
11965;DHT22;6042;41.326;19.826;2023-03-01T00:08:55;16.20;95.30
11965;DHT22;6042;41.326;19.826;2023-03-01T00:11:25;16.20;95.30
11965;DHT22;6042;41.326;19.826;2023-03-01T00:13:56;16.20;95.30
11965;DHT22;6042;41.326;19.826;2023-03-01T00:16:28;16.20;95.40
11965;DHT22;6042;41.326;19.826;2023-03-01T00:18:59;16.10;95.60
11965;DHT22;6042;41.326;19.826;2023-03-01T00:21:28;16.20;95.70
11965;DHT22;6042;41.326;19.826;2023-03-01T00:23:57;16.20;95.50
11965;DHT22;6042;41.326;19.826;2023-03-01T00:26:26;16.10;95.50
11965;DHT22;6042;41.326;19.826;2023-03-01T00:28:56;16.10;95.50
11965;DHT22;6042;41.326;19.826;2023-03-01T00:31:26;16.10;95.30
11965;DHT22;6042;41.326;19.826;2023-03-01T00:33:57;16.20;95.30
11965;DHT22;6042;41.326;19.826;2023-03-01T00:36:29;16.10;95.40
11965;DHT22;6042;41.326;19.826;2023-03-01T00:38:59;16.10;95.40
11965;DHT22;6042;41.326;19.826;2023-03-01T00:41:28;16.10;95.50
11965;DHT22;6042;41.326;19.826;2023-03-01T00:43:56;16.10;95.30
11965;DHT22;6042;41.326;19.826;2023-03-01T00:46:26;16.10;95.70
11965;DHT22;6042;41.326;19.826;2023-03-01T00:48:55;16.00;95.80
11965;DHT22;6042;41.326;19.826;2023-03-01T00:51:25;16.00;95.60
11965;DHT22;6042;41.326;19.826;2023-03-01T00:53:59;16.00;95.60
11965;DHT22;6042;41.326;19.826;2023-03-01T00:56:29;16.00;95.60
11965;DHT22;6042;41.326;19.826;2023-03-01T00:58:59;16.00;95.70
11965;DHT22;6042;41.326;19.826;2023-03-01T01:01:31;16.00;96.10
11965;DHT22;6042;41.326;19.826;2023-03-01T01:04:03;15.90;95.60
11965;DHT22;6042;41.326;19.826;2023-03-01T01:06:33;15.90;95.70
11965;DHT22;6042;41.326;19.826;2023-03-01T01:09:05;15.90;95.50
11965;DHT22;6042;41.326;19.826;2023-03-01T01:11:39;15.90;95.90
11965;DHT22;6042;41.326;19.826;2023-03-01T01:14:08;15.90;95.80
11965;DHT22;6042;41.326;19.826;2023-03-01T01:16:37;15.90;95.90
11965;DHT22;6042;41.326;19.826;2023-03-01T01:19:06;15.90;95.80
11965;DHT22;6042;41.326;19.826;2023-03-01T01:21:35;15.90;95.70
11965;DHT22;6042;41.326;19.826;2023-03-01T01:29:48;15.90;95.50
11965;DHT22;6042;41.326;19.826;2023-03-01T01:32:20;16.00;95.60
11965;DHT22;6042;41.326;19.826;2023-03-01T01:34:53;15.90;95.80
11965;DHT22;6042;41.326;19.826;2023-03-01T01:37:26;15.90;95.90
11965;DHT22;6042;41.326;19.826;2023-03-01T01:39:58;15.90;95.80
11965;DHT22;6042;41.326;19.826;2023-03-01T01:42:27;15.90;95.80
11965;DHT22;6042;41.326;19.826;2023-03-01T01:48:40;15.80;95.80
11965;DHT22;6042;41.326;19.826;2023-03-01T01:51:14;15.70;95.90
11965;DHT22;6042;41.326;19.826;2023-03-01T01:53:46;15.70;96.00
11965;DHT22;6042;41.326;19.826;2023-03-01T01:56:17;15.70;95.90
11965;DHT22;6042;41.326;19.826;2023-03-01T01:58:47;15.80;95.80
11965;DHT22;6042;41.326;19.826;2023-03-01T02:01:16;15.70;95.80
11965;DHT22;6042;41.326;19.826;2023-03-01T02:03:46;15.80;95.60
11965;DHT22;6042;41.326;19.826;2023-03-01T02:06:19;15.90;95.50
11965;DHT22;6042;41.326;19.826;2023-03-01T02:08:52;15.80;95.60
11965;DHT22;6042;41.326;19.826;2023-03-01T02:11:21;15.80;95.70
11965;DHT22;6042;41.326;19.826;2023-03-01T02:13:50;15.70;95.80
11965;DHT22;6042;41.326;19.826;2023-03-01T02:16:19;15.70;95.70
11965;DHT22;6042;41.326;19.826;2023-03-01T02:18:50;15.80;95.70
11965;DHT22;6042;41.326;19.826;2023-03-01T02:21:30;15.80;95.80
11965;DHT22;6042;41.326;19.826;2023-03-01T02:24:07;15.80;95.90
11965;DHT22;6042;41.326;19.826;2023-03-01T02:26:41;15.70;95.90
11965;DHT22;6042;41.326;19.826;2023-03-01T02:29:12;15.70;95.90
11965;DHT22;6042;41.326;19.826;2023-03-01T02:31:40;15.70;95.90
11965;DHT22;6042;41.326;19.826;2023-03-01T02:34:14;15.70;95.90
11965;DHT22;6042;41.326;19.826;2023-03-01T02:36:46;15.70;96.10
11965;DHT22;6042;41.326;19.826;2023-03-01T02:39:20;15.80;95.90
11965;DHT22;6042;41.326;19.826;2023-03-01T02:41:52;15.80;95.80
11965;DHT22;6042;41.326;19.826;2023-03-01T02:44:24;15.80;95.80
11965;DHT22;6042;41.326;19.826;2023-03-01T02:46:53;15.90;96.00
11965;DHT22;6042;41.326;19.826;2023-03-01T02:49:26;15.80;96.50
11965;DHT22;6042;41.326;19.826;2023-03-01T02:52:07;15.80;96.30
11965;DHT22;6042;41.326;19.826;2023-03-01T02:54:42;15.70;96.10
11965;DHT22;6042;41.326;19.826;2023-03-01T02:57:12;15.80;96.10
11965;DHT22;6042;41.326;19.826;2023-03-01T02:59:44;15.80;96.40
11965;DHT22;6042;41.326;19.826;2023-03-01T03:02:19;15.70;96.50
11965;DHT22;6042;41.326;19.826;2023-03-01T03:05:14;15.70;96.50
11965;DHT22;6042;41.326;19.826;2023-03-01T03:07:45;15.70;96.30
11965;DHT22;6042;41.326;19.826;2023-03-01T03:10:17;15.70;96.40
11965;DHT22;6042;41.326;19.826;2023-03-01T03:12:49;15.70;96.50
11965;DHT22;6042;41.326;19.826;2023-03-01T03:15:21;15.70;96.70
11965;DHT22;6042;41.326;19.826;2023-03-01T03:17:50;15.60;96.70
11965;DHT22;6042;41.326;19.826;2023-03-01T03:20:21;15.70;96.50
11965;DHT22;6042;41.326;19.826;2023-03-01T03:22:52;15.60;96.50
11965;DHT22;6042;41.326;19.826;2023-03-01T03:25:22;15.60;96.60
11965;DHT22;6042;41.326;19.826;2023-03-01T03:27:52;15.60;96.30
11965;DHT22;6042;41.326;19.826;2023-03-01T03:30:26;15.60;96.10
11965;DHT22;6042;41.326;19.826;2023-03-01T03:32:55;15.70;96.20
11965;DHT22;6042;41.326;19.826;2023-03-01T03:35:26;15.60;96.20
11965;DHT22;6042;41.326;19.826;2023-03-01T03:37:57;15.60;96.10
11965;DHT22;6042;41.326;19.826;2023-03-01T03:40:35;15.60;96.00
11965;DHT22;6042;41.326;19.826;2023-03-01T03:43:06;15.60;95.80
11965;DHT22;6042;41.326;19.826;2023-03-01T03:45:36;15.70;95.60
11965;DHT22;6042;41.326;19.826;2023-03-01T03:48:07;15.60;95.70
11965;DHT22;6042;41.326;19.826;2023-03-01T03:50:37;15.70;95.70
11965;DHT22;6042;41.326;19.826;2023-03-01T03:53:07;15.60;96.00
11965;DHT22;6042;41.326;19.826;2023-03-01T03:55:37;15.60;95.80
11965;DHT22;6042;41.326;19.826;2023-03-01T03:58:08;15.60;96.00
11965;DHT22;6042;41.326;19.826;2023-03-01T04:00:40;15.60;96.10
11965;DHT22;6042;41.326;19.826;2023-03-01T04:03:10;15.50;95.90
11965;DHT22;6042;41.326;19.826;2023-03-01T04:05:39;15.60;95.90
11965;DHT22;6042;41.326;19.826;2023-03-01T04:08:08;15.50;95.80
11965;DHT22;6042;41.326;19.826;2023-03-01T04:10:39;15.60;95.60
11965;DHT22;6042;41.326;19.826;2023-03-01T04:13:10;15.60;95.70
11965;DHT22;6042;41.326;19.826;2023-03-01T04:15:40;15.60;95.70
11965;DHT22;6042;41.326;19.826;2023-03-01T04:18:12;15.60;95.80
11965;DHT22;6042;41.326;19.826;2023-03-01T04:20:41;15.60;96.00
11965;DHT22;6042;41.326;19.826;2023-03-01T04:23:13;15.50;96.40
11965;DHT22;6042;41.326;19.826;2023-03-01T04:25:47;15.40;96.60
11965;DHT22;6042;41.326;19.826;2023-03-01T04:28:21;15.40;97.00
11965;DHT22;6042;41.326;19.826;2023-03-01T04:30:53;15.40;96.90
11965;DHT22;6042;41.326;19.826;2023-03-01T04:33:23;15.50;96.70
11965;DHT22;6042;41.326;19.826;2023-03-01T04:35:52;15.40;96.80
11965;DHT22;6042;41.326;19.826;2023-03-01T04:38:20;15.40;96.90
11965;DHT22;6042;41.326;19.826;2023-03-01T04:40:49;15.50;96.60
11965;DHT22;6042;41.326;19.826;2023-03-01T04:43:17;15.40;96.70
11965;DHT22;6042;41.326;19.826;2023-03-01T04:45:45;15.40;96.60
11965;DHT22;6042;41.326;19.826;2023-03-01T04:48:15;15.40;96.50
11965;DHT22;6042;41.326;19.826;2023-03-01T04:50:43;15.50;96.60
11965;DHT22;6042;41.326;19.826;2023-03-01T04:53:12;15.40;96.50
11965;DHT22;6042;41.326;19.826;2023-03-01T04:55:40;15.40;96.40
11965;DHT22;6042;41.326;19.826;2023-03-01T04:58:08;15.40;96.40
11965;DHT22;6042;41.326;19.826;2023-03-01T05:00:37;15.40;96.30
11965;DHT22;6042;41.326;19.826;2023-03-01T05:03:05;15.40;96.40
11965;DHT22;6042;41.326;19.826;2023-03-01T05:05:36;15.40;96.60
11965;DHT22;6042;41.326;19.826;2023-03-01T05:08:07;15.40;96.70
11965;DHT22;6042;41.326;19.826;2023-03-01T05:10:45;15.30;96.70
11965;DHT22;6042;41.326;19.826;2023-03-01T05:13:14;15.30;96.90
11965;DHT22;6042;41.326;19.826;2023-03-01T05:15:48;15.30;97.00
11965;DHT22;6042;41.326;19.826;2023-03-01T05:18:17;15.40;97.00
11965;DHT22;6042;41.326;19.826;2023-03-01T05:20:47;15.40;97.00
11965;DHT22;6042;41.326;19.826;2023-03-01T05:23:15;15.40;96.70
11965;DHT22;6042;41.326;19.826;2023-03-01T05:25:44;15.40;96.90
11965;DHT22;6042;41.326;19.826;2023-03-01T05:28:15;15.40;96.80
11965;DHT22;6042;41.326;19.826;2023-03-01T05:30:44;15.50;96.70
11965;DHT22;6042;41.326;19.826;2023-03-01T05:33:12;15.50;96.60
11965;DHT22;6042;41.326;19.826;2023-03-01T05:35:42;15.40;96.60
11965;DHT22;6042;41.326;19.826;2023-03-01T05:38:12;15.50;96.80
11965;DHT22;6042;41.326;19.826;2023-03-01T05:40:42;15.50;96.50
11965;DHT22;6042;41.326;19.826;2023-03-01T05:43:12;15.50;96.50
11965;DHT22;6042;41.326;19.826;2023-03-01T05:45:42;15.60;96.60
11965;DHT22;6042;41.326;19.826;2023-03-01T05:48:11;15.50;96.70
11965;DHT22;6042;41.326;19.826;2023-03-01T05:50:41;15.50;96.70
11965;DHT22;6042;41.326;19.826;2023-03-01T05:53:13;15.50;96.70
11965;DHT22;6042;41.326;19.826;2023-03-01T05:55:43;15.50;96.70
11965;DHT22;6042;41.326;19.826;2023-03-01T05:58:15;15.50;96.70
11965;DHT22;6042;41.326;19.826;2023-03-01T06:00:45;15.60;96.80
11965;DHT22;6042;41.326;19.826;2023-03-01T06:03:15;15.50;96.90
11965;DHT22;6042;41.326;19.826;2023-03-01T06:05:45;15.60;97.00
11965;DHT22;6042;41.326;19.826;2023-03-01T06:08:15;15.60;96.60
11965;DHT22;6042;41.326;19.826;2023-03-01T06:10:43;15.70;96.60
11965;DHT22;6042;41.326;19.826;2023-03-01T06:13:12;15.80;96.60
11965;DHT22;6042;41.326;19.826;2023-03-01T06:15:40;15.90;96.50
11965;DHT22;6042;41.326;19.826;2023-03-01T06:18:09;15.90;96.70
11965;DHT22;6042;41.326;19.826;2023-03-01T06:20:37;16.00;96.40
11965;DHT22;6042;41.326;19.826;2023-03-01T06:23:06;16.10;96.30
11965;DHT22;6042;41.326;19.826;2023-03-01T06:25:37;16.10;96.30
11965;DHT22;6042;41.326;19.826;2023-03-01T06:28:06;16.10;96.20
11965;DHT22;6042;41.326;19.826;2023-03-01T06:30:34;16.10;96.10
11965;DHT22;6042;41.326;19.826;2023-03-01T06:33:03;16.10;96.10
11965;DHT22;6042;41.326;19.826;2023-03-01T06:35:32;16.20;96.10
11965;DHT22;6042;41.326;19.826;2023-03-01T06:38:01;16.30;96.40
11965;DHT22;6042;41.326;19.826;2023-03-01T06:40:31;16.20;96.10
11965;DHT22;6042;41.326;19.826;2023-03-01T06:43:01;16.30;96.20
11965;DHT22;6042;41.326;19.826;2023-03-01T06:45:29;16.30;96.20
11965;DHT22;6042;41.326;19.826;2023-03-01T06:48:04;16.30;96.10
11965;DHT22;6042;41.326;19.826;2023-03-01T06:50:33;16.30;96.30
11965;DHT22;6042;41.326;19.826;2023-03-01T06:53:02;16.30;96.20
11965;DHT22;6042;41.326;19.826;2023-03-01T06:55:31;16.30;96.40
11965;DHT22;6042;41.326;19.826;2023-03-01T06:58:02;16.40;96.30
11965;DHT22;6042;41.326;19.826;2023-03-01T07:00:31;16.50;96.10
11965;DHT22;6042;41.326;19.826;2023-03-01T07:03:00;16.70;96.20
11965;DHT22;6042;41.326;19.826;2023-03-01T07:05:30;16.90;95.50
11965;DHT22;6042;41.326;19.826;2023-03-01T07:07:59;16.90;95.40
11965;DHT22;6042;41.326;19.826;2023-03-01T07:10:27;17.00;95.80
11965;DHT22;6042;41.326;19.826;2023-03-01T07:12:56;16.90;95.60
11965;DHT22;6042;41.326;19.826;2023-03-01T07:15:27;17.00;95.50
11965;DHT22;6042;41.326;19.826;2023-03-01T07:17:56;17.00;95.90
11965;DHT22;6042;41.326;19.826;2023-03-01T07:20:25;17.00;95.50
11965;DHT22;6042;41.326;19.826;2023-03-01T07:22:54;17.10;95.50
11965;DHT22;6042;41.326;19.826;2023-03-01T07:25:23;17.10;95.20
11965;DHT22;6042;41.326;19.826;2023-03-01T07:27:52;17.20;95.30
11965;DHT22;6042;41.326;19.826;2023-03-01T07:30:21;17.30;95.20
11965;DHT22;6042;41.326;19.826;2023-03-01T07:32:55;17.30;95.00
11965;DHT22;6042;41.326;19.826;2023-03-01T07:35:25;17.40;94.90
11965;DHT22;6042;41.326;19.826;2023-03-01T07:37:54;17.40;95.00
11965;DHT22;6042;41.326;19.826;2023-03-01T07:40:26;17.40;94.90
11965;DHT22;6042;41.326;19.826;2023-03-01T07:42:58;17.40;95.30
11965;DHT22;6042;41.326;19.826;2023-03-01T07:45:26;17.40;95.20
11965;DHT22;6042;41.326;19.826;2023-03-01T07:47:56;17.50;95.10
11965;DHT22;6042;41.326;19.826;2023-03-01T07:50:25;17.60;95.10
11965;DHT22;6042;41.326;19.826;2023-03-01T07:52:54;17.50;95.40
11965;DHT22;6042;41.326;19.826;2023-03-01T07:55:23;17.50;95.40
11965;DHT22;6042;41.326;19.826;2023-03-01T07:57:52;17.40;95.80
11965;DHT22;6042;41.326;19.826;2023-03-01T08:00:20;17.50;95.70
11965;DHT22;6042;41.326;19.826;2023-03-01T08:02:49;17.60;95.10
11965;DHT22;6042;41.326;19.826;2023-03-01T08:05:19;17.70;94.80
11965;DHT22;6042;41.326;19.826;2023-03-01T08:07:49;17.70;94.60
11965;DHT22;6042;41.326;19.826;2023-03-01T08:10:17;17.60;94.80
11965;DHT22;6042;41.326;19.826;2023-03-01T08:12:46;17.60;95.00
11965;DHT22;6042;41.326;19.826;2023-03-01T08:15:14;17.50;95.20
11965;DHT22;6042;41.326;19.826;2023-03-01T08:17:43;17.50;95.10
11965;DHT22;6042;41.326;19.826;2023-03-01T08:20:27;17.60;95.30
11965;DHT22;6042;41.326;19.826;2023-03-01T08:22:57;17.70;94.80
11965;DHT22;6042;41.326;19.826;2023-03-01T08:25:26;17.70;94.80
11965;DHT22;6042;41.326;19.826;2023-03-01T08:27:54;17.80;94.70
11965;DHT22;6042;41.326;19.826;2023-03-01T08:30:23;17.90;94.40
11965;DHT22;6042;41.326;19.826;2023-03-01T08:32:52;18.10;93.90
11965;DHT22;6042;41.326;19.826;2023-03-01T08:35:22;18.20;93.70
11965;DHT22;6042;41.326;19.826;2023-03-01T08:37:50;18.30;93.90
11965;DHT22;6042;41.326;19.826;2023-03-01T08:40:19;18.30;93.80
11965;DHT22;6042;41.326;19.826;2023-03-01T08:42:48;18.30;93.60
11965;DHT22;6042;41.326;19.826;2023-03-01T08:45:16;18.20;93.70
11965;DHT22;6042;41.326;19.826;2023-03-01T08:47:46;18.30;93.60
11965;DHT22;6042;41.326;19.826;2023-03-01T08:50:14;18.30;93.50
11965;DHT22;6042;41.326;19.826;2023-03-01T08:52:44;18.30;93.50
11965;DHT22;6042;41.326;19.826;2023-03-01T08:55:13;18.40;93.60
11965;DHT22;6042;41.326;19.826;2023-03-01T08:57:43;18.40;93.10
11965;DHT22;6042;41.326;19.826;2023-03-01T09:00:15;18.50;92.90
11965;DHT22;6042;41.326;19.826;2023-03-01T09:02:44;18.50;92.80
11965;DHT22;6042;41.326;19.826;2023-03-01T09:05:12;18.50;92.90
11965;DHT22;6042;41.326;19.826;2023-03-01T09:07:41;18.50;93.00
11965;DHT22;6042;41.326;19.826;2023-03-01T09:10:11;18.40;93.10
11965;DHT22;6042;41.326;19.826;2023-03-01T09:12:39;18.50;92.90
11965;DHT22;6042;41.326;19.826;2023-03-01T09:15:09;18.70;92.70
11965;DHT22;6042;41.326;19.826;2023-03-01T09:17:37;18.90;92.30
11965;DHT22;6042;41.326;19.826;2023-03-01T09:20:07;19.20;92.20
11965;DHT22;6042;41.326;19.826;2023-03-01T09:22:35;19.40;91.80
11965;DHT22;6042;41.326;19.826;2023-03-01T09:25:04;19.60;91.60
11965;DHT22;6042;41.326;19.826;2023-03-01T09:27:34;19.70;91.40
11965;DHT22;6042;41.326;19.826;2023-03-01T09:30:03;19.80;91.50
11965;DHT22;6042;41.326;19.826;2023-03-01T09:32:32;19.80;91.20
11965;DHT22;6042;41.326;19.826;2023-03-01T09:35:00;19.80;90.80
11965;DHT22;6042;41.326;19.826;2023-03-01T09:37:32;19.90;90.90
11965;DHT22;6042;41.326;19.826;2023-03-01T09:40:02;19.70;90.80
11965;DHT22;6042;41.326;19.826;2023-03-01T09:42:36;19.60;90.90
11965;DHT22;6042;41.326;19.826;2023-03-01T09:45:25;19.60;91.10
11965;DHT22;6042;41.326;19.826;2023-03-01T09:47:54;19.70;90.80
11965;DHT22;6042;41.326;19.826;2023-03-01T09:50:27;19.70;90.70
11965;DHT22;6042;41.326;19.826;2023-03-01T09:53:01;19.80;90.60
11965;DHT22;6042;41.326;19.826;2023-03-01T09:55:32;19.80;90.60
11965;DHT22;6042;41.326;19.826;2023-03-01T09:58:14;19.70;90.40
11965;DHT22;6042;41.326;19.826;2023-03-01T10:00:49;19.70;90.50
11965;DHT22;6042;41.326;19.826;2023-03-01T10:03:23;19.80;90.70
11965;DHT22;6042;41.326;19.826;2023-03-01T10:05:59;19.90;90.40
11965;DHT22;6042;41.326;19.826;2023-03-01T10:08:31;20.00;90.10
11965;DHT22;6042;41.326;19.826;2023-03-01T10:11:19;20.10;90.00
11965;DHT22;6042;41.326;19.826;2023-03-01T10:13:57;20.20;89.60
11965;DHT22;6042;41.326;19.826;2023-03-01T10:16:34;20.20;90.10
11965;DHT22;6042;41.326;19.826;2023-03-01T10:19:08;20.30;90.50
11965;DHT22;6042;41.326;19.826;2023-03-01T10:21:43;20.30;90.30
11965;DHT22;6042;41.326;19.826;2023-03-01T10:24:15;20.40;90.10
11965;DHT22;6042;41.326;19.826;2023-03-01T10:26:51;20.40;89.70
11965;DHT22;6042;41.326;19.826;2023-03-01T10:29:26;20.30;90.00
11965;DHT22;6042;41.326;19.826;2023-03-01T10:31:57;20.20;90.00
11965;DHT22;6042;41.326;19.826;2023-03-01T10:34:32;20.20;90.20
11965;DHT22;6042;41.326;19.826;2023-03-01T10:37:09;20.20;89.40
11965;DHT22;6042;41.326;19.826;2023-03-01T10:39:55;20.20;89.00
11965;DHT22;6042;41.326;19.826;2023-03-01T10:42:27;20.20;89.60
11965;DHT22;6042;41.326;19.826;2023-03-01T10:44:58;20.40;89.50
11965;DHT22;6042;41.326;19.826;2023-03-01T10:48:04;20.60;88.00
11965;DHT22;6042;41.326;19.826;2023-03-01T10:50:33;20.60;88.00
11965;DHT22;6042;41.326;19.826;2023-03-01T10:53:22;20.70;88.40
11965;DHT22;6042;41.326;19.826;2023-03-01T10:56:49;20.80;86.80
11965;DHT22;6042;41.326;19.826;2023-03-01T10:59:26;20.90;87.20
11965;DHT22;6042;41.326;19.826;2023-03-01T11:02:14;21.10;87.20
11965;DHT22;6042;41.326;19.826;2023-03-01T11:04:57;21.10;87.30
11965;DHT22;6042;41.326;19.826;2023-03-01T11:07:26;21.20;86.00
11965;DHT22;6042;41.326;19.826;2023-03-01T11:09:55;21.10;85.40
11965;DHT22;6042;41.326;19.826;2023-03-01T11:12:26;21.20;86.00
11965;DHT22;6042;41.326;19.826;2023-03-01T11:14:57;21.30;85.20
11965;DHT22;6042;41.326;19.826;2023-03-01T11:17:29;21.50;84.40
11965;DHT22;6042;41.326;19.826;2023-03-01T11:20:18;21.50;83.80
11965;DHT22;6042;41.326;19.826;2023-03-01T11:22:56;21.70;83.50
11965;DHT22;6042;41.326;19.826;2023-03-01T11:25:32;21.60;83.50
11965;DHT22;6042;41.326;19.826;2023-03-01T11:28:05;21.40;84.90
11965;DHT22;6042;41.326;19.826;2023-03-01T11:30:38;21.30;85.20
11965;DHT22;6042;41.326;19.826;2023-03-01T11:33:17;21.30;84.30
11965;DHT22;6042;41.326;19.826;2023-03-01T11:35:53;21.30;85.00
11965;DHT22;6042;41.326;19.826;2023-03-01T11:38:26;21.60;84.20
11965;DHT22;6042;41.326;19.826;2023-03-01T11:40:59;21.80;84.90
11965;DHT22;6042;41.326;19.826;2023-03-01T11:43:35;22.10;83.90
11965;DHT22;6042;41.326;19.826;2023-03-01T11:49:34;22.50;82.00
11965;DHT22;6042;41.326;19.826;2023-03-01T11:52:13;22.40;81.70
11965;DHT22;6042;41.326;19.826;2023-03-01T11:54:56;22.10;82.50
11965;DHT22;6042;41.326;19.826;2023-03-01T11:57:43;21.90;83.60
11965;DHT22;6042;41.326;19.826;2023-03-01T12:00:30;22.00;83.60
11965;DHT22;6042;41.326;19.826;2023-03-01T12:03:27;22.10;83.80
11965;DHT22;6042;41.326;19.826;2023-03-01T12:06:16;22.00;81.90
11965;DHT22;6042;41.326;19.826;2023-03-01T12:09:00;21.80;81.50
11965;DHT22;6042;41.326;19.826;2023-03-01T12:11:41;21.60;83.60
11965;DHT22;6042;41.326;19.826;2023-03-01T12:14:44;21.40;82.70
11965;DHT22;6042;41.326;19.826;2023-03-01T12:17:31;21.20;83.60
11965;DHT22;6042;41.326;19.826;2023-03-01T12:20:20;21.10;83.20
11965;DHT22;6042;41.326;19.826;2023-03-01T12:23:13;20.90;83.90
11965;DHT22;6042;41.326;19.826;2023-03-01T12:25:49;20.80;84.20
11965;DHT22;6042;41.326;19.826;2023-03-01T12:28:36;20.70;84.40
11965;DHT22;6042;41.326;19.826;2023-03-01T12:31:23;20.70;84.40
11965;DHT22;6042;41.326;19.826;2023-03-01T12:34:03;20.80;84.70
11965;DHT22;6042;41.326;19.826;2023-03-01T12:36:45;20.90;85.60
11965;DHT22;6042;41.326;19.826;2023-03-01T12:39:29;21.00;85.90
11965;DHT22;6042;41.326;19.826;2023-03-01T12:42:06;21.10;84.70
11965;DHT22;6042;41.326;19.826;2023-03-01T12:44:48;21.10;84.30
11965;DHT22;6042;41.326;19.826;2023-03-01T12:47:41;21.10;84.50
11965;DHT22;6042;41.326;19.826;2023-03-01T12:50:19;20.90;85.30
11965;DHT22;6042;41.326;19.826;2023-03-01T12:52:51;20.80;85.80
11965;DHT22;6042;41.326;19.826;2023-03-01T12:55:29;20.80;86.30
11965;DHT22;6042;41.326;19.826;2023-03-01T12:58:05;20.90;85.90
11965;DHT22;6042;41.326;19.826;2023-03-01T13:00:45;20.70;86.20
11965;DHT22;6042;41.326;19.826;2023-03-01T13:03:22;20.60;89.20
11965;DHT22;6042;41.326;19.826;2023-03-01T13:06:02;20.30;90.50
11965;DHT22;6042;41.326;19.826;2023-03-01T13:08:39;20.10;91.80
11965;DHT22;6042;41.326;19.826;2023-03-01T13:11:17;19.50;92.70
11965;DHT22;6042;41.326;19.826;2023-03-01T13:13:47;19.20;93.90
11965;DHT22;6042;41.326;19.826;2023-03-01T13:16:39;19.00;95.00
11965;DHT22;6042;41.326;19.826;2023-03-01T13:19:13;18.90;95.40
11965;DHT22;6042;41.326;19.826;2023-03-01T13:21:43;18.60;95.70
11965;DHT22;6042;41.326;19.826;2023-03-01T13:24:26;18.50;96.00
11965;DHT22;6042;41.326;19.826;2023-03-01T13:27:22;18.50;96.40
11965;DHT22;6042;41.326;19.826;2023-03-01T13:29:58;18.50;97.00
11965;DHT22;6042;41.326;19.826;2023-03-01T13:32:31;18.40;97.20
11965;DHT22;6042;41.326;19.826;2023-03-01T13:38:47;18.30;96.90
11965;DHT22;6042;41.326;19.826;2023-03-01T13:41:17;18.20;97.30
11965;DHT22;6042;41.326;19.826;2023-03-01T13:44:20;18.30;97.40
11965;DHT22;6042;41.326;19.826;2023-03-01T13:46:53;18.20;97.70
11965;DHT22;6042;41.326;19.826;2023-03-01T13:49:26;18.20;97.80
11965;DHT22;6042;41.326;19.826;2023-03-01T13:52:23;18.10;97.80
11965;DHT22;6042;41.326;19.826;2023-03-01T13:54:55;18.10;97.80
11965;DHT22;6042;41.326;19.826;2023-03-01T13:57:28;18.00;98.00
11965;DHT22;6042;41.326;19.826;2023-03-01T14:00:01;18.10;98.20
11965;DHT22;6042;41.326;19.826;2023-03-01T14:02:30;18.20;98.60
11965;DHT22;6042;41.326;19.826;2023-03-01T14:05:02;18.10;99.00
11965;DHT22;6042;41.326;19.826;2023-03-01T14:07:30;18.10;98.70
11965;DHT22;6042;41.326;19.826;2023-03-01T14:10:44;18.10;99.00
11965;DHT22;6042;41.326;19.826;2023-03-01T14:19:57;18.20;98.30
11965;DHT22;6042;41.326;19.826;2023-03-01T14:22:27;18.40;98.50
11965;DHT22;6042;41.326;19.826;2023-03-01T14:25:00;18.60;98.50
11965;DHT22;6042;41.326;19.826;2023-03-01T14:27:39;18.70;98.30
11965;DHT22;6042;41.326;19.826;2023-03-01T14:30:15;18.60;98.20
11965;DHT22;6042;41.326;19.826;2023-03-01T14:32:58;18.60;98.30
11965;DHT22;6042;41.326;19.826;2023-03-01T14:35:33;18.70;98.30
11965;DHT22;6042;41.326;19.826;2023-03-01T14:38:04;18.60;98.50
11965;DHT22;6042;41.326;19.826;2023-03-01T14:40:35;18.60;98.90
11965;DHT22;6042;41.326;19.826;2023-03-01T14:43:10;18.70;98.60
11965;DHT22;6042;41.326;19.826;2023-03-01T14:45:47;18.70;98.60
11965;DHT22;6042;41.326;19.826;2023-03-01T14:48:23;18.60;98.60
11965;DHT22;6042;41.326;19.826;2023-03-01T14:58:53;18.20;99.00
11965;DHT22;6042;41.326;19.826;2023-03-01T15:01:22;18.20;99.30
11965;DHT22;6042;41.326;19.826;2023-03-01T15:03:51;18.00;99.60
11965;DHT22;6042;41.326;19.826;2023-03-01T15:06:22;17.90;99.90
11965;DHT22;6042;41.326;19.826;2023-03-01T15:08:53;17.90;99.90
11965;DHT22;6042;41.326;19.826;2023-03-01T15:11:27;18.00;99.80
11965;DHT22;6042;41.326;19.826;2023-03-01T15:13:59;18.10;99.80
11965;DHT22;6042;41.326;19.826;2023-03-01T15:16:29;18.00;99.90
11965;DHT22;6042;41.326;19.826;2023-03-01T15:19:00;17.90;99.90
11965;DHT22;6042;41.326;19.826;2023-03-01T15:21:31;17.90;99.90
11965;DHT22;6042;41.326;19.826;2023-03-01T15:24:04;18.00;99.90
11965;DHT22;6042;41.326;19.826;2023-03-01T15:26:51;17.90;99.90
11965;DHT22;6042;41.326;19.826;2023-03-01T15:29:24;17.90;99.90
11965;DHT22;6042;41.326;19.826;2023-03-01T15:31:59;17.80;99.90
11965;DHT22;6042;41.326;19.826;2023-03-01T15:34:29;17.80;99.90
11965;DHT22;6042;41.326;19.826;2023-03-01T15:37:00;17.80;99.90
11965;DHT22;6042;41.326;19.826;2023-03-01T15:39:37;17.60;99.90
11965;DHT22;6042;41.326;19.826;2023-03-01T15:42:08;17.60;99.90
11965;DHT22;6042;41.326;19.826;2023-03-01T15:44:41;17.60;99.90
11965;DHT22;6042;41.326;19.826;2023-03-01T15:47:30;17.60;99.90
11965;DHT22;6042;41.326;19.826;2023-03-01T15:50:00;17.50;99.90
11965;DHT22;6042;41.326;19.826;2023-03-01T15:52:33;17.60;99.90
11965;DHT22;6042;41.326;19.826;2023-03-01T15:55:17;17.50;99.90
11965;DHT22;6042;41.326;19.826;2023-03-01T15:57:47;17.30;99.90
11965;DHT22;6042;41.326;19.826;2023-03-01T16:00:18;17.10;99.90
11965;DHT22;6042;41.326;19.826;2023-03-01T16:02:46;17.10;99.90
11965;DHT22;6042;41.326;19.826;2023-03-01T16:05:20;17.10;99.90
11965;DHT22;6042;41.326;19.826;2023-03-01T16:07:50;17.10;99.90
11965;DHT22;6042;41.326;19.826;2023-03-01T16:10:18;17.20;99.90
11965;DHT22;6042;41.326;19.826;2023-03-01T16:12:47;17.20;99.90
11965;DHT22;6042;41.326;19.826;2023-03-01T16:15:20;17.20;99.90
11965;DHT22;6042;41.326;19.826;2023-03-01T16:17:49;17.20;99.90
11965;DHT22;6042;41.326;19.826;2023-03-01T16:20:21;17.30;99.90
11965;DHT22;6042;41.326;19.826;2023-03-01T16:22:58;17.40;99.90
11965;DHT22;6042;41.326;19.826;2023-03-01T16:25:28;17.30;99.90
11965;DHT22;6042;41.326;19.826;2023-03-01T16:27:56;17.30;99.90
11965;DHT22;6042;41.326;19.826;2023-03-01T16:30:29;17.20;99.90
11965;DHT22;6042;41.326;19.826;2023-03-01T16:32:57;17.20;99.90
11965;DHT22;6042;41.326;19.826;2023-03-01T16:35:26;17.00;99.90
11965;DHT22;6042;41.326;19.826;2023-03-01T16:37:56;17.00;99.90